sensor_id;sensor_type;location;lat;lon;timestamp;noise_LAeq;noise_LA_min;noise_LA_max;noise_LA01;noise_LA95
11999;Laerm;40817;51.520;9.954;2023-03-23T00:00:48;43.70;40.03;48.49;;
11999;Laerm;40817;51.520;9.954;2023-03-23T00:03:17;43.13;39.92;46.13;;
11999;Laerm;40817;51.520;9.954;2023-03-23T00:05:44;43.42;39.46;47.14;;
11999;Laerm;40817;51.520;9.954;2023-03-23T00:08:17;43.75;40.62;54.36;;
11999;Laerm;40817;51.520;9.954;2023-03-23T00:10:49;43.62;40.36;45.86;;
11999;Laerm;40817;51.520;9.954;2023-03-23T00:13:19;44.43;41.82;50.01;;
11999;Laerm;40817;51.520;9.954;2023-03-23T00:15:47;43.64;38.21;53.11;;
11999;Laerm;40817;51.520;9.954;2023-03-23T00:18:20;42.99;39.34;53.89;;
11999;Laerm;40817;51.520;9.954;2023-03-23T00:20:52;43.79;40.43;48.71;;
11999;Laerm;40817;51.520;9.954;2023-03-23T00:23:24;43.26;40.13;52.59;;
11999;Laerm;40817;51.520;9.954;2023-03-23T00:25:55;44.20;40.13;59.83;;
11999;Laerm;40817;51.520;9.954;2023-03-23T00:28:25;43.31;40.62;55.73;;
11999;Laerm;40817;51.520;9.954;2023-03-23T00:30:57;44.71;39.70;62.58;;
11999;Laerm;40817;51.520;9.954;2023-03-23T00:33:30;44.16;40.43;58.08;;
11999;Laerm;40817;51.520;9.954;2023-03-23T00:35:59;43.11;40.23;50.73;;
11999;Laerm;40817;51.520;9.954;2023-03-23T00:38:27;42.63;38.37;49.63;;
11999;Laerm;40817;51.520;9.954;2023-03-23T00:40:54;42.99;38.81;60.50;;
11999;Laerm;40817;51.520;9.954;2023-03-23T00:43:24;43.34;39.70;51.99;;
11999;Laerm;40817;51.520;9.954;2023-03-23T00:45:56;42.68;39.58;54.36;;
11999;Laerm;40817;51.520;9.954;2023-03-23T00:48:29;43.42;39.70;60.27;;
11999;Laerm;40817;51.520;9.954;2023-03-23T00:50:58;46.47;41.30;60.89;;
11999;Laerm;40817;51.520;9.954;2023-03-23T00:53:27;46.09;40.89;61.58;;
11999;Laerm;40817;51.520;9.954;2023-03-23T00:55:55;44.18;39.34;69.77;;
11999;Laerm;40817;51.520;9.954;2023-03-23T00:58:22;42.92;39.58;53.73;;
11999;Laerm;40817;51.520;9.954;2023-03-23T01:00:50;45.58;39.92;61.45;;
11999;Laerm;40817;51.520;9.954;2023-03-23T01:03:17;49.34;41.38;70.06;;
11999;Laerm;40817;51.520;9.954;2023-03-23T01:05:47;48.47;41.46;70.94;;
11999;Laerm;40817;51.520;9.954;2023-03-23T01:08:18;45.19;40.23;61.82;;
11999;Laerm;40817;51.520;9.954;2023-03-23T01:10:48;46.14;39.46;66.64;;
11999;Laerm;40817;51.520;9.954;2023-03-23T01:13:16;51.08;41.06;64.02;;
11999;Laerm;40817;51.520;9.954;2023-03-23T01:15:44;60.08;43.86;76.02;;
11999;Laerm;40817;51.520;9.954;2023-03-23T01:18:13;61.93;42.71;78.31;;
11999;Laerm;40817;51.520;9.954;2023-03-23T01:20:40;56.29;41.22;76.38;;
11999;Laerm;40817;51.520;9.954;2023-03-23T01:23:10;52.68;39.81;76.45;;
11999;Laerm;40817;51.520;9.954;2023-03-23T01:25:37;49.65;40.62;76.02;;
11999;Laerm;40817;51.520;9.954;2023-03-23T01:28:05;44.40;39.81;69.97;;
11999;Laerm;40817;51.520;9.954;2023-03-23T01:30:32;44.35;40.23;61.66;;
11999;Laerm;40817;51.520;9.954;2023-03-23T01:33:03;45.22;39.92;69.22;;
11999;Laerm;40817;51.520;9.954;2023-03-23T01:35:30;46.09;39.34;71.23;;
11999;Laerm;40817;51.520;9.954;2023-03-23T01:37:58;46.20;39.92;73.12;;
11999;Laerm;40817;51.520;9.954;2023-03-23T01:40:28;45.01;39.70;73.73;;
11999;Laerm;40817;51.520;9.954;2023-03-23T01:42:55;44.38;40.71;61.04;;
11999;Laerm;40817;51.520;9.954;2023-03-23T01:45:32;43.80;39.21;61.02;;
11999;Laerm;40817;51.520;9.954;2023-03-23T01:48:13;43.99;40.33;61.41;;
11999;Laerm;40817;51.520;9.954;2023-03-23T01:50:53;45.23;40.62;75.52;;
11999;Laerm;40817;51.520;9.954;2023-03-23T01:53:28;43.52;40.23;47.24;;
11999;Laerm;40817;51.520;9.954;2023-03-23T01:55:59;44.95;39.70;73.69;;
11999;Laerm;40817;51.520;9.954;2023-03-23T01:58:33;45.32;39.81;75.31;;
11999;Laerm;40817;51.520;9.954;2023-03-23T02:01:06;43.88;40.53;69.57;;
11999;Laerm;40817;51.520;9.954;2023-03-23T02:03:41;43.27;39.46;63.68;;
11999;Laerm;40817;51.520;9.954;2023-03-23T02:06:10;43.52;38.95;66.79;;
11999;Laerm;40817;51.520;9.954;2023-03-23T02:08:39;43.29;40.33;56.17;;
11999;Laerm;40817;51.520;9.954;2023-03-23T02:11:15;43.78;39.81;49.38;;
11999;Laerm;40817;51.520;9.954;2023-03-23T02:13:49;43.03;39.46;45.11;;
11999;Laerm;40817;51.520;9.954;2023-03-23T02:16:30;42.90;39.46;45.30;;
11999;Laerm;40817;51.520;9.954;2023-03-23T02:19:22;43.23;39.21;46.73;;
11999;Laerm;40817;51.520;9.954;2023-03-23T02:22:41;43.01;39.81;48.29;;
11999;Laerm;40817;51.520;9.954;2023-03-23T02:25:40;42.67;38.87;49.10;;
11999;Laerm;40817;51.520;9.954;2023-03-23T02:28:47;42.87;39.70;52.94;;
11999;Laerm;40817;51.520;9.954;2023-03-23T02:31:56;44.11;40.18;57.53;;
11999;Laerm;40817;51.520;9.954;2023-03-23T02:34:34;44.54;39.92;66.90;;
11999;Laerm;40817;51.520;9.954;2023-03-23T02:37:11;44.95;39.46;59.03;;
11999;Laerm;40817;51.520;9.954;2023-03-23T02:39:45;43.66;40.71;55.88;;
11999;Laerm;40817;51.520;9.954;2023-03-23T02:42:20;44.33;40.43;56.20;;
11999;Laerm;40817;51.520;9.954;2023-03-23T02:44:50;43.32;39.46;62.93;;
11999;Laerm;40817;51.520;9.954;2023-03-23T02:47:24;44.12;40.23;58.53;;
11999;Laerm;40817;51.520;9.954;2023-03-23T02:49:56;44.83;40.62;58.67;;
11999;Laerm;40817;51.520;9.954;2023-03-23T02:52:29;45.20;40.23;61.24;;
11999;Laerm;40817;51.520;9.954;2023-03-23T02:54:59;44.66;39.21;68.26;;
11999;Laerm;40817;51.520;9.954;2023-03-23T02:57:28;45.23;40.33;66.79;;
11999;Laerm;40817;51.520;9.954;2023-03-23T02:59:56;45.44;40.80;58.89;;
11999;Laerm;40817;51.520;9.954;2023-03-23T03:02:26;46.69;40.53;70.16;;
11999;Laerm;40817;51.520;9.954;2023-03-23T03:05:06;48.19;42.47;71.79;;
11999;Laerm;40817;51.520;9.954;2023-03-23T03:07:58;48.36;41.89;72.45;;
11999;Laerm;40817;51.520;9.954;2023-03-23T03:10:35;50.10;42.53;74.24;;
11999;Laerm;40817;51.520;9.954;2023-03-23T03:13:13;53.65;41.46;76.08;;
11999;Laerm;40817;51.520;9.954;2023-03-23T03:15:46;54.05;41.82;77.42;;
11999;Laerm;40817;51.520;9.954;2023-03-23T03:18:24;55.19;42.00;77.40;;
11999;Laerm;40817;51.520;9.954;2023-03-23T03:21:02;54.73;41.22;76.34;;
11999;Laerm;40817;51.520;9.954;2023-03-23T03:23:33;52.41;40.71;76.00;;
11999;Laerm;40817;51.520;9.954;2023-03-23T03:26:03;49.90;40.33;75.97;;
11999;Laerm;40817;51.520;9.954;2023-03-23T03:28:32;47.88;40.62;75.72;;
11999;Laerm;40817;51.520;9.954;2023-03-23T03:31:04;49.56;40.33;74.97;;
11999;Laerm;40817;51.520;9.954;2023-03-23T03:33:33;50.85;41.22;75.44;;
11999;Laerm;40817;51.520;9.954;2023-03-23T03:36:05;52.12;40.62;77.75;;
11999;Laerm;40817;51.520;9.954;2023-03-23T03:38:43;50.76;40.98;76.61;;
11999;Laerm;40817;51.520;9.954;2023-03-23T03:41:10;48.43;40.33;75.25;;
11999;Laerm;40817;51.520;9.954;2023-03-23T03:43:38;51.94;41.68;76.57;;
11999;Laerm;40817;51.520;9.954;2023-03-23T03:46:06;53.44;41.38;77.66;;
11999;Laerm;40817;51.520;9.954;2023-03-23T03:48:34;51.21;39.81;76.09;;
11999;Laerm;40817;51.520;9.954;2023-03-23T03:51:04;50.41;40.03;76.26;;
11999;Laerm;40817;51.520;9.954;2023-03-23T03:53:31;50.56;41.06;76.19;;
11999;Laerm;40817;51.520;9.954;2023-03-23T03:55:59;51.93;42.09;76.37;;
11999;Laerm;40817;51.520;9.954;2023-03-23T03:58:27;52.32;42.09;75.47;;
11999;Laerm;40817;51.520;9.954;2023-03-23T04:00:59;53.57;42.35;76.94;;
11999;Laerm;40817;51.520;9.954;2023-03-23T04:03:46;52.66;40.98;76.56;;
11999;Laerm;40817;51.520;9.954;2023-03-23T04:06:34;52.83;41.75;76.15;;
11999;Laerm;40817;51.520;9.954;2023-03-23T04:09:23;52.66;41.30;76.51;;
11999;Laerm;40817;51.520;9.954;2023-03-23T04:11:54;52.50;40.98;76.82;;
11999;Laerm;40817;51.520;9.954;2023-03-23T04:14:21;52.60;41.14;76.12;;
11999;Laerm;40817;51.520;9.954;2023-03-23T04:16:48;52.88;41.61;75.73;;
11999;Laerm;40817;51.520;9.954;2023-03-23T04:19:22;52.76;40.62;76.48;;
11999;Laerm;40817;51.520;9.954;2023-03-23T04:21:51;53.70;42.59;75.91;;
11999;Laerm;40817;51.520;9.954;2023-03-23T04:24:19;54.26;42.65;77.64;;
11999;Laerm;40817;51.520;9.954;2023-03-23T04:26:49;54.25;42.29;77.75;;
11999;Laerm;40817;51.520;9.954;2023-03-23T04:29:18;53.90;42.22;75.52;;
11999;Laerm;40817;51.520;9.954;2023-03-23T04:31:45;54.71;42.59;77.11;;
11999;Laerm;40817;51.520;9.954;2023-03-23T04:34:13;55.31;43.29;75.85;;
11999;Laerm;40817;51.520;9.954;2023-03-23T04:36:41;54.94;42.65;76.12;;
11999;Laerm;40817;51.520;9.954;2023-03-23T04:39:09;56.97;43.09;78.25;;
11999;Laerm;40817;51.520;9.954;2023-03-23T04:41:38;58.10;44.58;78.03;;
11999;Laerm;40817;51.520;9.954;2023-03-23T04:44:06;58.30;43.54;77.51;;
11999;Laerm;40817;51.520;9.954;2023-03-23T04:46:34;58.74;43.58;77.65;;
11999;Laerm;40817;51.520;9.954;2023-03-23T04:49:02;61.64;44.51;77.92;;
11999;Laerm;40817;51.520;9.954;2023-03-23T04:51:30;60.84;44.23;77.74;;
11999;Laerm;40817;51.520;9.954;2023-03-23T04:53:58;58.55;43.54;78.16;;
11999;Laerm;40817;51.520;9.954;2023-03-23T04:56:27;58.57;42.71;77.41;;
11999;Laerm;40817;51.520;9.954;2023-03-23T04:58:55;57.64;42.76;77.41;;
11999;Laerm;40817;51.520;9.954;2023-03-23T05:01:22;55.10;43.14;77.47;;
11999;Laerm;40817;51.520;9.954;2023-03-23T05:03:50;56.73;43.14;77.41;;
11999;Laerm;40817;51.520;9.954;2023-03-23T05:06:17;55.02;42.47;76.51;;
11999;Laerm;40817;51.520;9.954;2023-03-23T05:08:45;55.24;43.29;77.00;;
11999;Laerm;40817;51.520;9.954;2023-03-23T05:11:12;57.76;42.65;76.90;;
11999;Laerm;40817;51.520;9.954;2023-03-23T05:13:41;56.33;42.29;79.17;;
11999;Laerm;40817;51.520;9.954;2023-03-23T05:16:10;53.31;42.09;77.95;;
11999;Laerm;40817;51.520;9.954;2023-03-23T05:18:37;52.05;41.96;76.77;;
11999;Laerm;40817;51.520;9.954;2023-03-23T05:21:05;53.84;42.09;77.61;;
11999;Laerm;40817;51.520;9.954;2023-03-23T05:23:33;51.94;42.22;78.02;;
11999;Laerm;40817;51.520;9.954;2023-03-23T05:26:02;50.43;42.85;77.98;;
11999;Laerm;40817;51.520;9.954;2023-03-23T05:28:29;48.21;42.35;77.57;;
11999;Laerm;40817;51.520;9.954;2023-03-23T05:30:58;46.18;41.53;74.23;;
11999;Laerm;40817;51.520;9.954;2023-03-23T05:33:26;44.96;42.22;60.07;;
11999;Laerm;40817;51.520;9.954;2023-03-23T05:35:53;48.14;42.59;78.16;;
11999;Laerm;40817;51.520;9.954;2023-03-23T05:38:21;44.69;41.96;60.54;;
11999;Laerm;40817;51.520;9.954;2023-03-23T05:40:49;45.08;42.03;63.86;;
11999;Laerm;40817;51.520;9.954;2023-03-23T05:43:16;49.53;42.41;78.40;;
11999;Laerm;40817;51.520;9.954;2023-03-23T05:45:44;45.01;42.41;59.12;;
11999;Laerm;40817;51.520;9.954;2023-03-23T05:48:13;45.14;42.76;59.84;;
11999;Laerm;40817;51.520;9.954;2023-03-23T05:50:40;45.83;42.65;58.37;;
11999;Laerm;40817;51.520;9.954;2023-03-23T05:53:08;45.64;42.29;68.47;;
11999;Laerm;40817;51.520;9.954;2023-03-23T05:55:36;45.20;42.35;59.77;;
11999;Laerm;40817;51.520;9.954;2023-03-23T05:58:04;47.08;42.88;59.61;;
11999;Laerm;40817;51.520;9.954;2023-03-23T06:00:31;45.82;42.76;55.33;;
11999;Laerm;40817;51.520;9.954;2023-03-23T06:03:00;45.87;42.65;68.83;;
11999;Laerm;40817;51.520;9.954;2023-03-23T06:05:29;44.63;42.35;53.99;;
11999;Laerm;40817;51.520;9.954;2023-03-23T06:07:57;45.70;42.29;68.79;;
11999;Laerm;40817;51.520;9.954;2023-03-23T06:10:25;46.31;42.71;58.51;;
11999;Laerm;40817;51.520;9.954;2023-03-23T06:12:53;44.87;42.16;56.33;;
11999;Laerm;40817;51.520;9.954;2023-03-23T06:15:20;45.26;42.59;67.89;;
11999;Laerm;40817;51.520;9.954;2023-03-23T06:17:48;45.28;42.65;57.84;;
11999;Laerm;40817;51.520;9.954;2023-03-23T06:20:16;45.25;42.59;57.99;;
11999;Laerm;40817;51.520;9.954;2023-03-23T06:22:45;50.09;42.41;66.96;;
11999;Laerm;40817;51.520;9.954;2023-03-23T06:25:13;51.84;42.88;68.71;;
11999;Laerm;40817;51.520;9.954;2023-03-23T06:27:42;51.97;43.24;67.85;;
11999;Laerm;40817;51.520;9.954;2023-03-23T06:30:11;46.88;43.39;56.68;;
11999;Laerm;40817;51.520;9.954;2023-03-23T06:32:41;50.08;43.44;69.12;;
11999;Laerm;40817;51.520;9.954;2023-03-23T06:35:12;52.75;43.44;71.02;;
11999;Laerm;40817;51.520;9.954;2023-03-23T06:37:40;47.92;42.76;69.43;;
11999;Laerm;40817;51.520;9.954;2023-03-23T06:40:10;45.65;42.41;55.93;;
11999;Laerm;40817;51.520;9.954;2023-03-23T06:42:38;45.90;42.82;57.63;;
11999;Laerm;40817;51.520;9.954;2023-03-23T06:45:07;46.78;42.59;60.85;;
11999;Laerm;40817;51.520;9.954;2023-03-23T06:47:35;45.90;42.47;64.83;;
11999;Laerm;40817;51.520;9.954;2023-03-23T06:50:04;46.05;43.29;56.52;;
11999;Laerm;40817;51.520;9.954;2023-03-23T06:52:31;45.91;42.35;59.81;;
11999;Laerm;40817;51.520;9.954;2023-03-23T06:54:59;45.58;42.76;60.01;;
11999;Laerm;40817;51.520;9.954;2023-03-23T06:57:28;45.54;42.47;57.67;;
11999;Laerm;40817;51.520;9.954;2023-03-23T06:59:55;59.34;43.42;69.31;;
11999;Laerm;40817;51.520;9.954;2023-03-23T07:02:22;48.36;42.74;70.55;;
11999;Laerm;40817;51.520;9.954;2023-03-23T07:04:51;45.79;42.88;58.48;;
11999;Laerm;40817;51.520;9.954;2023-03-23T07:07:20;45.78;42.98;58.60;;
11999;Laerm;40817;51.520;9.954;2023-03-23T07:09:48;45.36;42.47;55.19;;
11999;Laerm;40817;51.520;9.954;2023-03-23T07:12:16;45.41;42.71;68.06;;
11999;Laerm;40817;51.520;9.954;2023-03-23T07:14:44;48.64;43.19;73.74;;
11999;Laerm;40817;51.520;9.954;2023-03-23T07:17:12;45.46;43.00;52.09;;
11999;Laerm;40817;51.520;9.954;2023-03-23T07:19:39;45.34;42.76;56.99;;
11999;Laerm;40817;51.520;9.954;2023-03-23T07:22:08;44.94;42.65;50.35;;
11999;Laerm;40817;51.520;9.954;2023-03-23T07:24:35;45.02;42.65;53.87;;
11999;Laerm;40817;51.520;9.954;2023-03-23T07:27:03;45.49;42.65;58.12;;
11999;Laerm;40817;51.520;9.954;2023-03-23T07:29:31;49.39;43.34;69.96;;
11999;Laerm;40817;51.520;9.954;2023-03-23T07:32:03;45.72;42.93;55.54;;
11999;Laerm;40817;51.520;9.954;2023-03-23T07:34:31;45.65;42.65;54.60;;
11999;Laerm;40817;51.520;9.954;2023-03-23T07:36:59;46.89;42.88;68.87;;
11999;Laerm;40817;51.520;9.954;2023-03-23T07:39:26;45.49;42.41;56.94;;
11999;Laerm;40817;51.520;9.954;2023-03-23T07:41:54;45.47;42.71;57.39;;
11999;Laerm;40817;51.520;9.954;2023-03-23T07:44:22;44.77;41.82;59.37;;
11999;Laerm;40817;51.520;9.954;2023-03-23T07:46:50;46.36;41.96;59.68;;
11999;Laerm;40817;51.520;9.954;2023-03-23T07:49:20;45.44;42.29;57.90;;
11999;Laerm;40817;51.520;9.954;2023-03-23T07:51:48;44.79;42.22;56.22;;
11999;Laerm;40817;51.520;9.954;2023-03-23T07:54:15;51.32;43.04;69.97;;
11999;Laerm;40817;51.520;9.954;2023-03-23T07:56:43;47.65;43.14;58.51;;
11999;Laerm;40817;51.520;9.954;2023-03-23T07:59:12;48.06;41.75;70.65;;
11999;Laerm;40817;51.520;9.954;2023-03-23T08:01:39;44.79;41.75;58.03;;
11999;Laerm;40817;51.520;9.954;2023-03-23T08:04:07;45.63;42.41;67.48;;
11999;Laerm;40817;51.520;9.954;2023-03-23T08:06:36;44.92;42.71;51.34;;
11999;Laerm;40817;51.520;9.954;2023-03-23T08:09:05;47.03;43.00;58.62;;
11999;Laerm;40817;51.520;9.954;2023-03-23T08:11:35;46.85;43.29;68.27;;
11999;Laerm;40817;51.520;9.954;2023-03-23T08:14:03;45.84;42.76;67.57;;
11999;Laerm;40817;51.520;9.954;2023-03-23T08:16:31;44.75;41.94;60.20;;
11999;Laerm;40817;51.520;9.954;2023-03-23T08:19:00;47.25;42.41;61.24;;
11999;Laerm;40817;51.520;9.954;2023-03-23T08:21:28;47.20;42.41;68.71;;
11999;Laerm;40817;51.520;9.954;2023-03-23T08:23:57;45.02;42.71;57.06;;
11999;Laerm;40817;51.520;9.954;2023-03-23T08:26:25;45.31;42.16;57.22;;
11999;Laerm;40817;51.520;9.954;2023-03-23T08:28:53;46.26;42.41;57.16;;
11999;Laerm;40817;51.520;9.954;2023-03-23T08:31:21;47.90;43.39;59.63;;
11999;Laerm;40817;51.520;9.954;2023-03-23T08:33:48;49.70;43.63;61.56;;
11999;Laerm;40817;51.520;9.954;2023-03-23T08:36:16;46.13;42.98;57.80;;
11999;Laerm;40817;51.520;9.954;2023-03-23T08:38:44;45.09;42.16;57.26;;
11999;Laerm;40817;51.520;9.954;2023-03-23T08:41:13;47.32;42.53;57.36;;
11999;Laerm;40817;51.520;9.954;2023-03-23T08:43:40;52.42;42.76;66.88;;
11999;Laerm;40817;51.520;9.954;2023-03-23T08:46:08;54.85;42.93;71.14;;
11999;Laerm;40817;51.520;9.954;2023-03-23T08:48:37;45.03;42.53;53.87;;
11999;Laerm;40817;51.520;9.954;2023-03-23T08:51:06;44.68;42.41;56.24;;
11999;Laerm;40817;51.520;9.954;2023-03-23T08:53:35;45.70;42.59;56.77;;
11999;Laerm;40817;51.520;9.954;2023-03-23T08:56:05;45.12;42.29;53.95;;
11999;Laerm;40817;51.520;9.954;2023-03-23T08:58:35;45.10;42.47;52.82;;
11999;Laerm;40817;51.520;9.954;2023-03-23T09:01:05;45.35;42.29;60.88;;
11999;Laerm;40817;51.520;9.954;2023-03-23T09:03:35;45.33;41.96;59.19;;
11999;Laerm;40817;51.520;9.954;2023-03-23T09:06:06;44.39;41.96;56.94;;
11999;Laerm;40817;51.520;9.954;2023-03-23T09:08:35;44.91;41.82;58.29;;
11999;Laerm;40817;51.520;9.954;2023-03-23T09:11:06;45.74;42.03;56.96;;
11999;Laerm;40817;51.520;9.954;2023-03-23T09:13:37;47.34;42.59;60.04;;
11999;Laerm;40817;51.520;9.954;2023-03-23T09:16:08;45.07;42.41;60.47;;
11999;Laerm;40817;51.520;9.954;2023-03-23T09:18:36;45.26;42.09;56.16;;
11999;Laerm;40817;51.520;9.954;2023-03-23T09:21:05;44.95;42.29;53.45;;
11999;Laerm;40817;51.520;9.954;2023-03-23T09:23:33;45.91;42.64;55.86;;
11999;Laerm;40817;51.520;9.954;2023-03-23T09:26:03;47.85;42.71;61.10;;
11999;Laerm;40817;51.520;9.954;2023-03-23T09:28:31;46.44;42.29;68.15;;
11999;Laerm;40817;51.520;9.954;2023-03-23T09:30:59;47.41;43.04;59.43;;
11999;Laerm;40817;51.520;9.954;2023-03-23T09:33:27;45.64;42.47;56.42;;
11999;Laerm;40817;51.520;9.954;2023-03-23T09:36:00;47.03;42.41;64.34;;
11999;Laerm;40817;51.520;9.954;2023-03-23T09:38:28;44.70;42.35;53.90;;
11999;Laerm;40817;51.520;9.954;2023-03-23T09:41:11;49.08;42.41;65.68;;
11999;Laerm;40817;51.520;9.954;2023-03-23T09:43:59;45.74;42.65;57.14;;
11999;Laerm;40817;51.520;9.954;2023-03-23T09:46:46;45.16;42.47;56.95;;
11999;Laerm;40817;51.520;9.954;2023-03-23T09:49:21;44.56;42.35;55.53;;
11999;Laerm;40817;51.520;9.954;2023-03-23T09:51:55;45.83;42.98;54.00;;
11999;Laerm;40817;51.520;9.954;2023-03-23T09:54:28;45.69;42.82;53.75;;
11999;Laerm;40817;51.520;9.954;2023-03-23T09:56:59;45.08;42.65;54.67;;
11999;Laerm;40817;51.520;9.954;2023-03-23T09:59:34;46.57;42.53;63.17;;
11999;Laerm;40817;51.520;9.954;2023-03-23T10:02:21;47.00;43.09;59.68;;
11999;Laerm;40817;51.520;9.954;2023-03-23T10:04:52;48.10;42.93;59.20;;
11999;Laerm;40817;51.520;9.954;2023-03-23T10:07:25;47.25;43.29;57.02;;
11999;Laerm;40817;51.520;9.954;2023-03-23T10:09:57;45.27;42.41;60.73;;
11999;Laerm;40817;51.520;9.954;2023-03-23T10:12:36;46.84;42.71;60.43;;
11999;Laerm;40817;51.520;9.954;2023-03-23T10:15:14;45.78;42.82;63.28;;
11999;Laerm;40817;51.520;9.954;2023-03-23T10:17:50;46.06;42.71;60.90;;
11999;Laerm;40817;51.520;9.954;2023-03-23T10:20:36;45.86;42.82;56.62;;
11999;Laerm;40817;51.520;9.954;2023-03-23T10:23:20;46.76;42.76;61.89;;
11999;Laerm;40817;51.520;9.954;2023-03-23T10:25:56;46.89;43.04;61.23;;
11999;Laerm;40817;51.520;9.954;2023-03-23T10:28:37;46.21;42.59;57.95;;
11999;Laerm;40817;51.520;9.954;2023-03-23T10:31:13;45.77;42.59;60.66;;
11999;Laerm;40817;51.520;9.954;2023-03-23T10:33:47;44.75;41.82;54.72;;
11999;Laerm;40817;51.520;9.954;2023-03-23T10:36:19;45.02;42.53;51.55;;
11999;Laerm;40817;51.520;9.954;2023-03-23T10:39:00;47.48;43.24;60.20;;
11999;Laerm;40817;51.520;9.954;2023-03-23T10:41:29;46.10;42.90;59.42;;
11999;Laerm;40817;51.520;9.954;2023-03-23T10:43:57;44.85;42.22;57.85;;
11999;Laerm;40817;51.520;9.954;2023-03-23T10:46:37;45.00;42.59;53.38;;
11999;Laerm;40817;51.520;9.954;2023-03-23T10:49:12;45.21;42.35;53.99;;
11999;Laerm;40817;51.520;9.954;2023-03-23T10:51:46;45.40;41.75;59.07;;
11999;Laerm;40817;51.520;9.954;2023-03-23T10:54:32;45.58;42.82;52.64;;
11999;Laerm;40817;51.520;9.954;2023-03-23T10:57:01;45.91;42.82;57.72;;
11999;Laerm;40817;51.520;9.954;2023-03-23T10:59:40;46.16;42.71;56.07;;
11999;Laerm;40817;51.520;9.954;2023-03-23T11:02:20;54.68;44.54;67.34;;
11999;Laerm;40817;51.520;9.954;2023-03-23T11:05:01;47.57;43.04;58.21;;
11999;Laerm;40817;51.520;9.954;2023-03-23T11:07:35;47.65;42.82;68.95;;
11999;Laerm;40817;51.520;9.954;2023-03-23T11:10:20;46.90;42.76;58.23;;
11999;Laerm;40817;51.520;9.954;2023-03-23T11:12:47;45.32;42.88;52.85;;
11999;Laerm;40817;51.520;9.954;2023-03-23T11:15:27;44.75;42.22;53.10;;
11999;Laerm;40817;51.520;9.954;2023-03-23T11:18:01;47.54;43.24;58.22;;
11999;Laerm;40817;51.520;9.954;2023-03-23T11:20:39;49.10;42.35;61.63;;
11999;Laerm;40817;51.520;9.954;2023-03-23T11:23:18;45.54;42.22;56.29;;
11999;Laerm;40817;51.520;9.954;2023-03-23T11:26:13;53.80;42.98;71.63;;
11999;Laerm;40817;51.520;9.954;2023-03-23T11:28:48;49.70;43.04;64.72;;
11999;Laerm;40817;51.520;9.954;2023-03-23T11:31:22;45.42;42.29;56.86;;
11999;Laerm;40817;51.520;9.954;2023-03-23T11:33:55;47.56;42.93;58.77;;
11999;Laerm;40817;51.520;9.954;2023-03-23T11:36:34;48.32;42.29;68.63;;
11999;Laerm;40817;51.520;9.954;2023-03-23T11:39:19;46.70;41.96;58.11;;
11999;Laerm;40817;51.520;9.954;2023-03-23T11:41:47;46.60;42.41;60.07;;
11999;Laerm;40817;51.520;9.954;2023-03-23T11:44:15;45.73;42.16;52.96;;
11999;Laerm;40817;51.520;9.954;2023-03-23T11:46:55;47.21;42.65;61.07;;
11999;Laerm;40817;51.520;9.954;2023-03-23T11:49:43;50.14;43.19;67.73;;
11999;Laerm;40817;51.520;9.954;2023-03-23T11:52:23;46.65;43.44;59.02;;
11999;Laerm;40817;51.520;9.954;2023-03-23T11:54:59;47.62;43.44;57.86;;
11999;Laerm;40817;51.520;9.954;2023-03-23T11:57:28;47.57;43.44;58.54;;
11999;Laerm;40817;51.520;9.954;2023-03-23T11:59:56;46.78;42.93;58.23;;
11999;Laerm;40817;51.520;9.954;2023-03-23T12:05:52;48.53;42.47;65.43;;
11999;Laerm;40817;51.520;9.954;2023-03-23T12:08:45;45.67;42.65;58.29;;
11999;Laerm;40817;51.520;9.954;2023-03-23T12:11:32;47.18;42.88;62.18;;
11999;Laerm;40817;51.520;9.954;2023-03-23T12:14:17;46.39;42.76;69.63;;
11999;Laerm;40817;51.520;9.954;2023-03-23T12:17:04;49.95;42.76;66.36;;
11999;Laerm;40817;51.520;9.954;2023-03-23T12:19:43;46.00;42.35;64.78;;
11999;Laerm;40817;51.520;9.954;2023-03-23T12:22:31;49.79;43.49;67.30;;
11999;Laerm;40817;51.520;9.954;2023-03-23T12:25:30;47.55;42.65;58.55;;
11999;Laerm;40817;51.520;9.954;2023-03-23T12:28:09;46.97;42.93;60.26;;
11999;Laerm;40817;51.520;9.954;2023-03-23T12:30:46;49.22;43.60;62.54;;
11999;Laerm;40817;51.520;9.954;2023-03-23T12:33:33;46.81;42.16;57.39;;
11999;Laerm;40817;51.520;9.954;2023-03-23T12:36:21;49.52;43.14;62.47;;
11999;Laerm;40817;51.520;9.954;2023-03-23T12:39:42;49.62;43.49;63.79;;
11999;Laerm;40817;51.520;9.954;2023-03-23T12:42:26;45.76;42.71;55.74;;
11999;Laerm;40817;51.520;9.954;2023-03-23T12:45:07;50.11;42.82;65.89;;
11999;Laerm;40817;51.520;9.954;2023-03-23T12:47:48;47.87;43.34;57.91;;
11999;Laerm;40817;51.520;9.954;2023-03-23T12:50:26;46.11;42.93;60.96;;
11999;Laerm;40817;51.520;9.954;2023-03-23T12:52:59;49.12;42.65;77.36;;
11999;Laerm;40817;51.520;9.954;2023-03-23T12:55:37;45.60;42.03;58.67;;
11999;Laerm;40817;51.520;9.954;2023-03-23T12:58:15;54.55;42.41;71.61;;
11999;Laerm;40817;51.520;9.954;2023-03-23T13:00:55;49.21;42.22;63.50;;
11999;Laerm;40817;51.520;9.954;2023-03-23T13:03:32;47.76;42.41;60.55;;
11999;Laerm;40817;51.520;9.954;2023-03-23T13:06:07;45.08;42.03;56.45;;
11999;Laerm;40817;51.520;9.954;2023-03-23T13:08:44;44.95;41.38;61.09;;
11999;Laerm;40817;51.520;9.954;2023-03-23T13:11:21;45.98;42.59;60.82;;
11999;Laerm;40817;51.520;9.954;2023-03-23T13:13:56;45.09;42.58;56.65;;
11999;Laerm;40817;51.520;9.954;2023-03-23T13:16:36;46.34;42.65;62.55;;
11999;Laerm;40817;51.520;9.954;2023-03-23T13:19:17;49.53;43.60;70.21;;
11999;Laerm;40817;51.520;9.954;2023-03-23T13:21:56;48.95;43.29;65.09;;
11999;Laerm;40817;51.520;9.954;2023-03-23T13:24:30;46.75;42.98;61.52;;
11999;Laerm;40817;51.520;9.954;2023-03-23T13:26:59;46.09;41.96;58.12;;
11999;Laerm;40817;51.520;9.954;2023-03-23T13:29:29;45.59;42.65;56.23;;
11999;Laerm;40817;51.520;9.954;2023-03-23T13:32:11;45.47;41.68;55.89;;
11999;Laerm;40817;51.520;9.954;2023-03-23T13:34:40;49.13;43.34;66.34;;
11999;Laerm;40817;51.520;9.954;2023-03-23T13:37:20;44.83;42.41;58.18;;
11999;Laerm;40817;51.520;9.954;2023-03-23T13:39:52;46.56;41.75;63.36;;
11999;Laerm;40817;51.520;9.954;2023-03-23T13:42:25;48.41;42.82;76.03;;
11999;Laerm;40817;51.520;9.954;2023-03-23T13:45:21;51.17;42.35;66.78;;
11999;Laerm;40817;51.520;9.954;2023-03-23T13:48:04;54.28;44.23;65.96;;
11999;Laerm;40817;51.520;9.954;2023-03-23T13:50:50;54.21;45.07;66.58;;
11999;Laerm;40817;51.520;9.954;2023-03-23T13:53:27;51.18;42.65;65.55;;
11999;Laerm;40817;51.520;9.954;2023-03-23T13:56:18;46.02;42.65;57.80;;
11999;Laerm;40817;51.520;9.954;2023-03-23T13:58:49;46.54;42.98;57.11;;
11999;Laerm;40817;51.520;9.954;2023-03-23T14:01:33;45.94;41.82;58.53;;
11999;Laerm;40817;51.520;9.954;2023-03-23T14:04:06;46.48;41.96;68.33;;
11999;Laerm;40817;51.520;9.954;2023-03-23T14:06:35;47.02;42.93;59.51;;
11999;Laerm;40817;51.520;9.954;2023-03-23T14:09:13;45.69;42.76;61.30;;
11999;Laerm;40817;51.520;9.954;2023-03-23T14:11:56;48.65;42.82;62.20;;
11999;Laerm;40817;51.520;9.954;2023-03-23T14:14:28;47.14;42.88;60.75;;
11999;Laerm;40817;51.520;9.954;2023-03-23T14:17:12;49.52;43.24;65.17;;
11999;Laerm;40817;51.520;9.954;2023-03-23T14:19:46;45.67;42.71;56.64;;